Current Conditions
Partly Cloudy
Conditions



Pressure
999.92 (hPa) - 29.53 (inHG)
Visibility

10.0 (km) - 6.2 (miles)
   Temperature
16  °C
61°F
9  °C
Dewpoint
63  %
 Humidity
   Wind Speed
13  km/h
7  kts
8  mph
3.6  m/s
   Wind Direction
 360°
Due North
   Airport Data
EHAM
Location Amsterdam Airport Schiphol 20 km (12.43 mi)
Metar :EHAM 261455Z 36007KT 330V060 9999 FEW025 16/09 Q1000 NOSIG
Sat 26th September 16:55 pm
   Raw Metar Info
Raw METAR is the most common format in the world for the transmission of observational weather data. It is highly standardized through the International Civil Aviation Organization (ICAO), which allows it to be understood throughout most of the world.
   API Info
Data Provided by
https://www.checkwx.com/weather/EHAM
   © Info
CSS/SVG/PHP scripts were developed by weather34.com for use in the weather34 template © 2015-2020

Guide Info provided by Metar-Wikipedia